Time;durP1;ratioP1;P1;durP2;ratioP2;P2;SDS_P1;SDS_P2;PMS_P1;PMS_P2;Temp;Humidity;BMP_temperature;BMP_pressure;BME280_temperature;BME280_humidity;BME280_pressure;Samples;Min_cycle;Max_cycle;Signal;HPM_P1;HPM_P2
2023/12/29 00:00:54;;;;;;;;;;;12.60;99.90;;;;;;7331893;19;109983;-62
2023/12/29 00:03:21;;;;;;;;;;;12.60;99.90;;;;;;7328386;19;108878;-62
2023/12/29 00:05:48;;;;;;;;;;;12.60;99.90;;;;;;7330382;19;110477;-61
2023/12/29 00:08:15;;;;;;;;;;;12.60;99.90;;;;;;7328061;19;111406;-62
2023/12/29 00:10:43;;;;;;;;;;;12.60;99.90;;;;;;7331567;19;108915;-62
2023/12/29 00:13:10;;;;;;;;;;;12.60;99.90;;;;;;7328593;19;109427;-62
2023/12/29 00:15:38;;;;;;;;;;;12.60;99.90;;;;;;7331862;19;109756;-62
2023/12/29 00:18:05;;;;;;;;;;;12.60;99.90;;;;;;7330481;19;108537;-62
2023/12/29 00:20:33;;;;;;;;;;;12.60;99.90;;;;;;7328667;19;109452;-61
2023/12/29 00:23:07;;;;;;;;;;;12.60;99.90;;;;;;7331234;19;109274;-62
2023/12/29 00:25:38;;;;;;;;;;;12.60;99.90;;;;;;7327404;19;108432;-62
2023/12/29 00:28:05;;;;;;;;;;;12.60;99.90;;;;;;7331033;19;110049;-62
2023/12/29 00:30:32;;;;;;;;;;;12.60;99.90;;;;;;7330704;19;108550;-62
2023/12/29 00:33:20;;;;;;;;;;;12.60;99.90;;;;;;7327482;19;109969;-61
2023/12/29 00:35:47;;;;;;;;;;;12.60;99.90;;;;;;7330481;19;109922;-61
2023/12/29 00:38:14;;;;;;;;;;;12.50;99.90;;;;;;7331476;19;109986;-62
2023/12/29 00:40:41;;;;;;;;;;;12.50;99.90;;;;;;7330549;19;109620;-62
2023/12/29 00:43:08;;;;;;;;;;;12.50;99.90;;;;;;7330044;19;108584;-62
2023/12/29 00:45:36;;;;;;;;;;;12.50;99.90;;;;;;7328248;19;109253;-61
2023/12/29 00:48:03;;;;;;;;;;;12.40;99.90;;;;;;7333992;19;109761;-62
2023/12/29 00:50:31;;;;;;;;;;;12.40;99.90;;;;;;7334630;19;110159;-62
2023/12/29 00:52:58;;;;;;;;;;;12.40;99.90;;;;;;7337358;19;109266;-61
2023/12/29 00:55:25;;;;;;;;;;;12.30;99.90;;;;;;7336876;19;109885;-61
2023/12/29 00:57:53;;;;;;;;;;;12.30;99.90;;;;;;7336698;19;108783;-61
2023/12/29 01:00:21;;;;;;;;;;;12.30;99.90;;;;;;7340463;19;110964;-61
2023/12/29 01:02:48;;;;;;;;;;;12.30;99.90;;;;;;7336422;19;108616;-61
2023/12/29 01:05:16;;;;;;;;;;;12.30;99.90;;;;;;7334320;19;111579;-62
2023/12/29 01:07:43;;;;;;;;;;;12.20;99.90;;;;;;7335254;19;110474;-62
2023/12/29 01:10:11;;;;;;;;;;;12.20;99.90;;;;;;7332573;19;110739;-61
2023/12/29 01:12:38;;;;;;;;;;;12.20;99.90;;;;;;7337674;19;108703;-61
2023/12/29 01:15:05;;;;;;;;;;;12.20;99.90;;;;;;7335239;19;110266;-61
2023/12/29 01:17:33;;;;;;;;;;;12.20;99.90;;;;;;7334348;19;109243;-61
2023/12/29 01:20:02;;;;;;;;;;;12.20;99.90;;;;;;7341324;19;109365;-61
2023/12/29 01:22:29;;;;;;;;;;;12.10;99.90;;;;;;7337710;19;108611;-61
2023/12/29 01:24:58;;;;;;;;;;;12.20;99.90;;;;;;7336381;19;108783;-61
2023/12/29 01:27:25;;;;;;;;;;;12.20;99.90;;;;;;7333048;19;111073;-61
2023/12/29 01:29:52;;;;;;;;;;;12.10;99.90;;;;;;7335589;19;109004;-61
2023/12/29 01:32:20;;;;;;;;;;;12.20;99.90;;;;;;7337365;19;108571;-61
2023/12/29 01:34:47;;;;;;;;;;;12.20;99.90;;;;;;7335937;19;109082;-61
2023/12/29 01:37:14;;;;;;;;;;;12.20;99.90;;;;;;7334046;19;109249;-62
2023/12/29 01:39:41;;;;;;;;;;;12.20;99.90;;;;;;7334705;19;109706;-61
2023/12/29 01:42:08;;;;;;;;;;;12.20;99.90;;;;;;7337736;19;109140;-62
2023/12/29 01:44:35;;;;;;;;;;;12.20;99.90;;;;;;7336503;19;113029;-61
2023/12/29 01:47:05;;;;;;;;;;;12.30;99.90;;;;;;7334952;19;109714;-61
2023/12/29 01:49:33;;;;;;;;;;;12.30;99.90;;;;;;7333288;19;109714;-64
2023/12/29 01:52:01;;;;;;;;;;;12.20;99.90;;;;;;7336545;19;114032;-62
2023/12/29 01:54:30;;;;;;;;;;;12.20;99.90;;;;;;7334122;19;110734;-62
2023/12/29 01:56:58;;;;;;;;;;;12.30;99.90;;;;;;7335043;19;109419;-62
2023/12/29 01:59:27;;;;;;;;;;;12.30;99.90;;;;;;7333076;19;108806;-62
2023/12/29 02:01:57;;;;;;;;;;;12.30;99.90;;;;;;7332244;19;110186;-62
2023/12/29 02:04:25;;;;;;;;;;;12.30;99.90;;;;;;7340363;19;109173;-62
2023/12/29 02:06:53;;;;;;;;;;;12.30;99.90;;;;;;7333413;19;109509;-62
2023/12/29 02:09:20;;;;;;;;;;;12.30;99.90;;;;;;7333326;19;108930;-64
2023/12/29 02:11:47;;;;;;;;;;;12.30;99.90;;;;;;7334616;19;110275;-62
2023/12/29 02:14:15;;;;;;;;;;;12.30;99.90;;;;;;7332935;19;109834;-63
2023/12/29 02:16:43;;;;;;;;;;;12.30;99.90;;;;;;7335986;19;109196;-62
2023/12/29 02:19:28;;;;;;;;;;;12.30;99.90;;;;;;7334257;19;109482;-62
2023/12/29 02:21:55;;;;;;;;;;;12.40;99.90;;;;;;7333763;19;112571;-61
2023/12/29 02:24:22;;;;;;;;;;;12.40;99.90;;;;;;7327911;19;110561;-62
2023/12/29 02:26:53;;;;;;;;;;;12.40;99.90;;;;;;7340571;19;109140;-62
2023/12/29 02:29:21;;;;;;;;;;;12.40;99.90;;;;;;7334059;19;110554;-63
2023/12/29 02:31:51;;;;;;;;;;;12.40;99.90;;;;;;7328605;19;110090;-62
2023/12/29 02:34:19;;;;;;;;;;;12.40;99.90;;;;;;7333996;19;111855;-62
2023/12/29 02:36:48;;;;;;;;;;;12.30;99.90;;;;;;7330184;19;109126;-61
2023/12/29 02:39:16;;;;;;;;;;;12.30;99.90;;;;;;7330554;19;108883;-62
2023/12/29 02:41:43;;;;;;;;;;;12.30;99.90;;;;;;7331758;19;109196;-66
2023/12/29 02:44:11;;;;;;;;;;;12.40;99.90;;;;;;7331523;19;108873;-62
2023/12/29 02:46:38;;;;;;;;;;;12.40;99.90;;;;;;7335646;19;109415;-62
2023/12/29 02:49:11;;;;;;;;;;;12.40;99.90;;;;;;7336505;19;110066;-62
2023/12/29 02:51:38;;;;;;;;;;;12.40;99.90;;;;;;7333694;19;109328;-62
2023/12/29 02:54:07;;;;;;;;;;;12.40;99.90;;;;;;7330098;19;110952;-62
2023/12/29 02:56:35;;;;;;;;;;;12.40;99.90;;;;;;7329541;19;108787;-62
2023/12/29 02:59:02;;;;;;;;;;;12.40;99.90;;;;;;7329814;19;109295;-63
2023/12/29 03:01:29;;;;;;;;;;;12.40;99.90;;;;;;7331982;19;109201;-62
2023/12/29 03:03:56;;;;;;;;;;;12.40;99.90;;;;;;7331857;19;108888;-62
2023/12/29 03:06:24;;;;;;;;;;;12.40;99.90;;;;;;7335655;19;108830;-62
2023/12/29 03:08:52;;;;;;;;;;;12.40;99.90;;;;;;7332518;19;110415;-62
2023/12/29 03:11:19;;;;;;;;;;;12.40;99.90;;;;;;7338341;19;108774;-62
2023/12/29 03:13:46;;;;;;;;;;;12.40;99.90;;;;;;7332767;19;110850;-62
2023/12/29 03:16:13;;;;;;;;;;;12.40;99.90;;;;;;7332160;19;109445;-62
2023/12/29 03:18:41;;;;;;;;;;;12.40;99.90;;;;;;7332397;19;109024;-62
2023/12/29 03:21:09;;;;;;;;;;;12.40;99.90;;;;;;7331236;19;109148;-63
2023/12/29 03:23:36;;;;;;;;;;;12.40;99.90;;;;;;7331195;19;108823;-62
2023/12/29 03:26:04;;;;;;;;;;;12.30;99.90;;;;;;7331280;19;112390;-62
2023/12/29 03:28:31;;;;;;;;;;;12.30;99.90;;;;;;7333746;19;110842;-62
2023/12/29 03:30:58;;;;;;;;;;;12.30;99.90;;;;;;7338216;19;108647;-62
2023/12/29 03:33:25;;;;;;;;;;;12.30;99.90;;;;;;7330495;19;110242;-62
2023/12/29 03:35:52;;;;;;;;;;;12.30;99.90;;;;;;7331818;19;109230;-62
2023/12/29 03:38:19;;;;;;;;;;;12.30;99.90;;;;;;7331969;19;108827;-63
2023/12/29 03:40:46;;;;;;;;;;;12.30;99.90;;;;;;7332461;19;109205;-62
2023/12/29 03:43:13;;;;;;;;;;;12.30;99.90;;;;;;7330417;19;109327;-62
2023/12/29 03:45:40;;;;;;;;;;;12.20;99.90;;;;;;7329442;19;110614;-62
2023/12/29 03:48:08;;;;;;;;;;;12.20;99.90;;;;;;7331422;19;110051;-62
2023/12/29 03:50:36;;;;;;;;;;;12.20;99.90;;;;;;7328441;19;109651;-62
2023/12/29 03:53:03;;;;;;;;;;;12.20;99.90;;;;;;7336886;19;109060;-64
2023/12/29 03:55:31;;;;;;;;;;;12.20;99.90;;;;;;7328600;19;108675;-62
2023/12/29 03:57:58;;;;;;;;;;;12.10;99.90;;;;;;7330974;19;109339;-62
2023/12/29 04:00:25;;;;;;;;;;;12.20;99.90;;;;;;7330212;19;109860;-64
2023/12/29 04:02:52;;;;;;;;;;;12.10;99.90;;;;;;7330166;19;109589;-62
2023/12/29 04:05:19;;;;;;;;;;;12.10;99.90;;;;;;7330342;19;110174;-62
2023/12/29 04:07:46;;;;;;;;;;;12.10;99.90;;;;;;7330812;19;110219;-62
2023/12/29 04:10:13;;;;;;;;;;;12.10;99.90;;;;;;7328434;19;110477;-62
2023/12/29 04:12:41;;;;;;;;;;;12.10;99.90;;;;;;7329213;19;110987;-62
2023/12/29 04:15:08;;;;;;;;;;;12.10;99.90;;;;;;7334431;19;110241;-62
2023/12/29 04:17:35;;;;;;;;;;;12.10;99.90;;;;;;7329874;19;110538;-62
2023/12/29 04:20:03;;;;;;;;;;;12.10;99.90;;;;;;7329624;19;110023;-62
2023/12/29 04:22:30;;;;;;;;;;;12.10;99.90;;;;;;7327881;19;110995;-62
2023/12/29 04:24:57;;;;;;;;;;;12.00;99.90;;;;;;7330495;19;110678;-62
2023/12/29 04:27:24;;;;;;;;;;;12.10;99.90;;;;;;7328017;19;110670;-62
2023/12/29 04:29:51;;;;;;;;;;;12.10;99.90;;;;;;7329520;19;110199;-62
2023/12/29 04:32:18;;;;;;;;;;;12.10;99.90;;;;;;7330983;19;108839;-62
2023/12/29 04:34:45;;;;;;;;;;;12.00;99.90;;;;;;7331308;19;111007;-62
2023/12/29 04:37:13;;;;;;;;;;;12.10;99.90;;;;;;7339306;19;108494;-62
2023/12/29 04:39:40;;;;;;;;;;;12.00;99.90;;;;;;7331302;19;110016;-62
2023/12/29 04:42:07;;;;;;;;;;;12.10;99.90;;;;;;7331512;19;108741;-62
2023/12/29 04:44:34;;;;;;;;;;;12.00;99.90;;;;;;7331524;19;109180;-62
2023/12/29 04:47:01;;;;;;;;;;;12.00;99.90;;;;;;7327664;19;109178;-62
2023/12/29 04:49:29;;;;;;;;;;;12.10;99.90;;;;;;7331656;19;109282;-62
2023/12/29 04:51:56;;;;;;;;;;;12.00;99.90;;;;;;7327099;19;109335;-62
2023/12/29 04:54:24;;;;;;;;;;;12.00;99.90;;;;;;7330925;19;109857;-62
2023/12/29 04:56:51;;;;;;;;;;;12.00;99.90;;;;;;7326429;19;110286;-62
2023/12/29 04:59:18;;;;;;;;;;;12.00;99.90;;;;;;7335644;19;110109;-62
2023/12/29 05:01:45;;;;;;;;;;;12.00;99.90;;;;;;7327196;19;110472;-62
2023/12/29 05:04:14;;;;;;;;;;;12.00;99.90;;;;;;7328111;19;108975;-62
2023/12/29 05:06:41;;;;;;;;;;;12.00;99.90;;;;;;7331491;19;110255;-62
2023/12/29 05:09:09;;;;;;;;;;;12.00;99.90;;;;;;7331107;19;108344;-62
2023/12/29 05:11:36;;;;;;;;;;;12.00;99.90;;;;;;7330749;19;108973;-63
2023/12/29 05:14:03;;;;;;;;;;;11.90;99.90;;;;;;7329622;19;109678;-62
2023/12/29 05:16:30;;;;;;;;;;;11.90;99.90;;;;;;7329352;19;108721;-62
2023/12/29 05:18:57;;;;;;;;;;;11.90;99.90;;;;;;7332700;19;109271;-62
2023/12/29 05:21:25;;;;;;;;;;;12.00;99.90;;;;;;7331809;19;109044;-62
2023/12/29 05:23:53;;;;;;;;;;;12.00;99.90;;;;;;7328905;19;108845;-63
2023/12/29 05:26:20;;;;;;;;;;;12.00;99.90;;;;;;7326953;19;109670;-62
2023/12/29 05:28:47;;;;;;;;;;;12.00;99.90;;;;;;7330349;19;108771;-62
2023/12/29 05:31:14;;;;;;;;;;;12.00;99.90;;;;;;7329603;19;109069;-62
2023/12/29 05:33:41;;;;;;;;;;;12.00;99.90;;;;;;7334380;19;109204;-62
2023/12/29 05:36:09;;;;;;;;;;;11.90;99.90;;;;;;7336156;19;109715;-62
2023/12/29 05:38:37;;;;;;;;;;;11.90;99.90;;;;;;7338275;19;110828;-62
2023/12/29 05:41:04;;;;;;;;;;;11.90;99.90;;;;;;7337284;19;111300;-62
2023/12/29 05:43:32;;;;;;;;;;;12.00;99.90;;;;;;7336329;19;109784;-62
2023/12/29 05:46:00;;;;;;;;;;;11.90;99.90;;;;;;7333756;19;110048;-62
2023/12/29 05:48:27;;;;;;;;;;;11.90;99.90;;;;;;7335472;19;108803;-62
2023/12/29 05:50:54;;;;;;;;;;;12.00;99.90;;;;;;7335366;19;109263;-62
2023/12/29 05:53:21;;;;;;;;;;;11.90;99.90;;;;;;7334971;19;109953;-62
2023/12/29 05:55:48;;;;;;;;;;;11.90;99.90;;;;;;7334368;19;109184;-62
2023/12/29 05:58:15;;;;;;;;;;;11.90;99.90;;;;;;7331471;19;109666;-62
2023/12/29 06:00:44;;;;;;;;;;;11.90;99.90;;;;;;7334221;19;110171;-62
2023/12/29 06:03:11;;;;;;;;;;;11.90;99.90;;;;;;7338073;19;110723;-62
2023/12/29 06:05:39;;;;;;;;;;;11.90;99.90;;;;;;7336171;19;109480;-62
2023/12/29 06:08:06;;;;;;;;;;;12.00;99.90;;;;;;7332106;19;108581;-62
2023/12/29 06:10:35;;;;;;;;;;;11.90;99.90;;;;;;7335970;19;109305;-62
2023/12/29 06:13:03;;;;;;;;;;;11.90;99.90;;;;;;7332858;19;111187;-62
2023/12/29 06:15:30;;;;;;;;;;;11.80;99.90;;;;;;7333479;19;109963;-62
2023/12/29 06:18:00;;;;;;;;;;;11.80;99.90;;;;;;7336770;19;109201;-61
2023/12/29 06:20:27;;;;;;;;;;;11.80;99.90;;;;;;7335955;19;110930;-61
2023/12/29 06:22:55;;;;;;;;;;;11.80;99.90;;;;;;7336641;19;109392;-62
2023/12/29 06:25:22;;;;;;;;;;;11.80;99.90;;;;;;7339115;19;108461;-62
2023/12/29 06:27:49;;;;;;;;;;;11.80;99.90;;;;;;7335456;19;108675;-61
2023/12/29 06:30:16;;;;;;;;;;;11.80;99.90;;;;;;7331963;19;109088;-61
2023/12/29 06:32:44;;;;;;;;;;;11.70;99.90;;;;;;7336767;19;110204;-61
2023/12/29 06:35:11;;;;;;;;;;;11.70;99.90;;;;;;7337517;19;108900;-61
2023/12/29 06:37:39;;;;;;;;;;;11.70;99.90;;;;;;7333353;19;109755;-61
2023/12/29 06:40:06;;;;;;;;;;;11.70;99.90;;;;;;7332632;19;109397;-62
2023/12/29 06:42:33;;;;;;;;;;;11.70;99.90;;;;;;7338369;19;108666;-61
2023/12/29 06:45:01;;;;;;;;;;;11.70;99.90;;;;;;7334345;19;113920;-63
2023/12/29 06:47:28;;;;;;;;;;;11.70;99.90;;;;;;7341072;19;111295;-61
2023/12/29 06:49:57;;;;;;;;;;;11.70;99.90;;;;;;7335472;19;108625;-61
2023/12/29 06:52:30;;;;;;;;;;;11.70;99.90;;;;;;7337787;19;112953;-61
2023/12/29 06:54:57;;;;;;;;;;;11.70;99.90;;;;;;7336720;19;108400;-61
2023/12/29 06:57:24;;;;;;;;;;;11.70;99.90;;;;;;7335510;19;110564;-61
2023/12/29 06:59:51;;;;;;;;;;;11.60;99.90;;;;;;7338279;19;110198;-61
2023/12/29 07:02:18;;;;;;;;;;;11.70;99.90;;;;;;7333732;19;110088;-60
2023/12/29 07:04:45;;;;;;;;;;;11.70;99.90;;;;;;7336605;19;109013;-61
2023/12/29 07:07:12;;;;;;;;;;;11.70;99.90;;;;;;7335925;19;110121;-61
2023/12/29 07:09:40;;;;;;;;;;;11.60;99.90;;;;;;7337727;19;108421;-61
2023/12/29 07:12:07;;;;;;;;;;;11.60;99.90;;;;;;7335735;19;110085;-61
2023/12/29 07:14:35;;;;;;;;;;;11.60;99.90;;;;;;7330730;19;108562;-61
2023/12/29 07:17:03;;;;;;;;;;;11.60;99.90;;;;;;7334451;19;108836;-60
2023/12/29 07:19:36;;;;;;;;;;;11.60;99.90;;;;;;7335002;19;110359;-60
2023/12/29 07:22:05;;;;;;;;;;;11.60;99.90;;;;;;7334431;19;109263;-63
2023/12/29 07:24:32;;;;;;;;;;;11.60;99.90;;;;;;7335391;19;108634;-62
2023/12/29 07:27:00;;;;;;;;;;;11.60;99.90;;;;;;7335098;19;109124;-63
2023/12/29 07:29:27;;;;;;;;;;;11.60;99.90;;;;;;7342941;19;109123;-63
2023/12/29 07:31:54;;;;;;;;;;;11.60;99.90;;;;;;7332298;19;109087;-63
2023/12/29 07:34:21;;;;;;;;;;;11.60;99.90;;;;;;7336910;19;109852;-62
2023/12/29 07:36:49;;;;;;;;;;;11.60;99.90;;;;;;7335764;19;112212;-60
2023/12/29 07:39:17;;;;;;;;;;;11.60;99.90;;;;;;7331958;19;112460;-60
2023/12/29 07:41:44;;;;;;;;;;;11.60;99.90;;;;;;7335637;19;110679;-62
2023/12/29 07:44:12;;;;;;;;;;;11.60;99.90;;;;;;7335202;19;109248;-62
2023/12/29 07:46:39;;;;;;;;;;;11.60;99.90;;;;;;7335408;19;110505;-60
2023/12/29 07:49:07;;;;;;;;;;;11.60;99.90;;;;;;7335861;19;108881;-61
2023/12/29 07:51:38;;;;;;;;;;;11.60;99.90;;;;;;7341565;19;108571;-61
2023/12/29 07:54:06;;;;;;;;;;;11.60;99.90;;;;;;7333702;19;112686;-60
2023/12/29 07:56:33;;;;;;;;;;;11.60;99.90;;;;;;7332878;19;109865;-61
2023/12/29 07:59:00;;;;;;;;;;;11.60;99.90;;;;;;7334953;19;110321;-60
2023/12/29 08:01:27;;;;;;;;;;;11.60;99.90;;;;;;7332737;19;108474;-60
2023/12/29 08:03:55;;;;;;;;;;;11.60;99.90;;;;;;7333186;19;110081;-60
2023/12/29 08:06:22;;;;;;;;;;;11.70;99.90;;;;;;7328794;19;109188;-60
2023/12/29 08:08:49;;;;;;;;;;;11.60;99.90;;;;;;7330249;19;108628;-60
2023/12/29 08:11:16;;;;;;;;;;;11.60;99.90;;;;;;7333299;19;108580;-61
2023/12/29 08:13:45;;;;;;;;;;;11.60;99.90;;;;;;7337329;19;108720;-61
2023/12/29 08:16:17;;;;;;;;;;;11.60;99.90;;;;;;7327527;19;109379;-59
2023/12/29 08:18:47;;;;;;;;;;;11.60;99.90;;;;;;7334643;19;109886;-60
2023/12/29 08:21:20;;;;;;;;;;;11.60;99.90;;;;;;7335659;19;108505;-60
2023/12/29 08:23:48;;;;;;;;;;;11.60;99.90;;;;;;7333875;19;109136;-61
2023/12/29 08:26:15;;;;;;;;;;;11.60;99.90;;;;;;7332418;19;109242;-60
2023/12/29 08:28:43;;;;;;;;;;;11.60;99.90;;;;;;7333466;19;108740;-60
2023/12/29 08:31:10;;;;;;;;;;;11.60;99.90;;;;;;7334822;19;109662;-60
2023/12/29 08:33:37;;;;;;;;;;;11.60;99.90;;;;;;7329911;19;109708;-60
2023/12/29 08:36:05;;;;;;;;;;;11.60;99.90;;;;;;7339899;19;108584;-60
2023/12/29 08:38:32;;;;;;;;;;;11.60;99.90;;;;;;7334046;19;109635;-60
2023/12/29 08:40:59;;;;;;;;;;;11.60;99.90;;;;;;7334010;19;110408;-60
2023/12/29 08:43:27;;;;;;;;;;;11.60;99.90;;;;;;7335977;19;109154;-60
2023/12/29 08:45:54;;;;;;;;;;;11.60;99.90;;;;;;7333990;19;109151;-60
2023/12/29 08:48:21;;;;;;;;;;;11.60;99.90;;;;;;7335128;19;109460;-60
2023/12/29 08:50:49;;;;;;;;;;;11.60;99.90;;;;;;7334374;19;110994;-60
2023/12/29 08:53:17;;;;;;;;;;;11.50;99.90;;;;;;7331732;19;111163;-60
2023/12/29 08:55:44;;;;;;;;;;;11.50;99.90;;;;;;7335227;19;109359;-61
2023/12/29 08:58:12;;;;;;;;;;;11.50;99.90;;;;;;7335588;19;108398;-61
2023/12/29 09:00:39;;;;;;;;;;;11.60;99.90;;;;;;7334340;19;109885;-61
2023/12/29 09:03:07;;;;;;;;;;;11.60;99.90;;;;;;7331474;19;108892;-61
2023/12/29 09:05:34;;;;;;;;;;;11.60;99.90;;;;;;7333513;19;112435;-60
2023/12/29 09:08:01;;;;;;;;;;;11.60;99.90;;;;;;7338116;19;110812;-61
2023/12/29 09:10:28;;;;;;;;;;;11.60;99.90;;;;;;7335956;19;111281;-61
2023/12/29 09:12:56;;;;;;;;;;;11.60;99.90;;;;;;7338345;19;111802;-61
2023/12/29 09:15:23;;;;;;;;;;;11.50;99.90;;;;;;7338173;19;109696;-61
2023/12/29 09:17:50;;;;;;;;;;;11.50;99.90;;;;;;7338220;19;108644;-61
2023/12/29 09:20:18;;;;;;;;;;;11.60;99.90;;;;;;7342414;19;109224;-61
2023/12/29 09:22:45;;;;;;;;;;;11.60;99.90;;;;;;7340788;19;109365;-61
2023/12/29 09:25:12;;;;;;;;;;;11.60;99.90;;;;;;7337508;19;110123;-61
2023/12/29 09:27:40;;;;;;;;;;;11.60;99.90;;;;;;7337623;19;108616;-61
2023/12/29 09:30:07;;;;;;;;;;;11.60;99.90;;;;;;7338685;19;109338;-60
2023/12/29 09:32:34;;;;;;;;;;;11.60;99.90;;;;;;7339275;19;109197;-60
2023/12/29 09:35:03;;;;;;;;;;;11.60;99.90;;;;;;7339249;19;108686;-60
2023/12/29 09:37:30;;;;;;;;;;;11.60;99.90;;;;;;7341143;19;109371;-60
2023/12/29 09:39:57;;;;;;;;;;;11.60;99.90;;;;;;7346419;19;110161;-60
2023/12/29 09:42:28;;;;;;;;;;;11.60;99.90;;;;;;7343010;19;109049;-60
2023/12/29 09:44:55;;;;;;;;;;;11.60;99.90;;;;;;7338971;19;109093;-60
2023/12/29 09:47:23;;;;;;;;;;;11.60;99.90;;;;;;7338659;19;108578;-60
2023/12/29 09:49:52;;;;;;;;;;;11.70;99.90;;;;;;7338997;19;109257;-60
2023/12/29 09:52:20;;;;;;;;;;;11.70;99.90;;;;;;7336695;19;109606;-60
2023/12/29 09:54:48;;;;;;;;;;;11.80;99.90;;;;;;7337331;19;109125;-60
2023/12/29 09:57:16;;;;;;;;;;;11.80;99.90;;;;;;7337763;19;110334;-60
2023/12/29 09:59:43;;;;;;;;;;;11.80;99.90;;;;;;7336795;19;110653;-60
2023/12/29 10:02:12;;;;;;;;;;;11.90;99.90;;;;;;7344173;19;109011;-60
2023/12/29 10:04:39;;;;;;;;;;;11.90;99.90;;;;;;7335875;19;110413;-60
2023/12/29 10:07:07;;;;;;;;;;;11.90;99.90;;;;;;7339120;19;108313;-60
2023/12/29 10:09:36;;;;;;;;;;;11.90;99.90;;;;;;7337274;19;109566;-60
2023/12/29 10:12:06;;;;;;;;;;;12.00;99.90;;;;;;7337007;19;109444;-59
2023/12/29 10:14:33;;;;;;;;;;;12.00;99.90;;;;;;7335685;19;109077;-60
2023/12/29 10:17:06;;;;;;;;;;;12.00;99.90;;;;;;7338658;19;109531;-59
2023/12/29 10:19:39;;;;;;;;;;;12.00;99.90;;;;;;7336787;19;109689;-60
2023/12/29 10:22:21;;;;;;;;;;;12.10;99.90;;;;;;7335049;19;109155;-59
2023/12/29 10:24:50;;;;;;;;;;;12.00;99.90;;;;;;7340902;19;109096;-60
2023/12/29 10:27:17;;;;;;;;;;;12.10;99.90;;;;;;7339067;19;109254;-60
2023/12/29 10:29:44;;;;;;;;;;;12.10;99.90;;;;;;7337670;19;109336;-60
2023/12/29 10:32:11;;;;;;;;;;;12.10;99.90;;;;;;7335980;19;111668;-61
2023/12/29 10:34:39;;;;;;;;;;;12.10;99.90;;;;;;7337628;19;108955;-61
2023/12/29 10:37:13;;;;;;;;;;;12.10;99.90;;;;;;7338479;19;109473;-61
2023/12/29 10:39:54;;;;;;;;;;;12.10;99.90;;;;;;7335528;19;109387;-61
2023/12/29 10:42:22;;;;;;;;;;;12.10;99.90;;;;;;7336057;19;108823;-61
2023/12/29 10:45:03;;;;;;;;;;;12.10;99.90;;;;;;7334578;19;109131;-60
2023/12/29 10:47:31;;;;;;;;;;;12.10;99.90;;;;;;7341924;19;108498;-60
2023/12/29 10:50:03;;;;;;;;;;;12.10;99.90;;;;;;7334065;19;108689;-60
2023/12/29 10:52:32;;;;;;;;;;;12.00;99.90;;;;;;7335157;19;111000;-60
2023/12/29 10:55:09;;;;;;;;;;;12.10;99.90;;;;;;7333871;19;109230;-60
2023/12/29 10:57:37;;;;;;;;;;;12.00;99.90;;;;;;7337370;19;109658;-60
2023/12/29 11:00:06;;;;;;;;;;;12.00;99.90;;;;;;7336696;19;110778;-61
2023/12/29 11:02:34;;;;;;;;;;;12.00;99.90;;;;;;7335935;19;108911;-60
2023/12/29 11:05:04;;;;;;;;;;;12.00;99.90;;;;;;7336889;19;110118;-60
2023/12/29 11:07:32;;;;;;;;;;;12.00;99.90;;;;;;7338166;19;110244;-61
2023/12/29 11:10:02;;;;;;;;;;;12.00;99.90;;;;;;7343897;19;108696;-60
2023/12/29 11:12:32;;;;;;;;;;;12.00;99.90;;;;;;7336321;19;109158;-60
2023/12/29 11:15:00;;;;;;;;;;;12.00;99.90;;;;;;7336345;19;109618;-60
2023/12/29 11:17:29;;;;;;;;;;;12.10;99.90;;;;;;7336991;19;108621;-61
2023/12/29 11:19:57;;;;;;;;;;;12.10;99.90;;;;;;7335709;19;110642;-61
2023/12/29 11:22:27;;;;;;;;;;;12.20;99.90;;;;;;7335072;19;108849;-60
2023/12/29 11:24:55;;;;;;;;;;;12.20;99.90;;;;;;7334484;19;109951;-61
2023/12/29 11:27:22;;;;;;;;;;;12.20;99.90;;;;;;7339697;19;109901;-60
2023/12/29 11:29:50;;;;;;;;;;;12.30;99.90;;;;;;7335824;19;109553;-69
2023/12/29 11:32:22;;;;;;;;;;;12.30;99.90;;;;;;7336768;19;108516;-69
2023/12/29 11:34:54;;;;;;;;;;;12.20;99.90;;;;;;7326881;19;109822;-69
2023/12/29 11:37:28;;;;;;;;;;;12.10;99.90;;;;;;7333899;19;109863;-69
2023/12/29 11:40:13;;;;;;;;;;;12.10;99.90;;;;;;7333975;19;111018;-69
2023/12/29 11:42:42;;;;;;;;;;;12.20;99.90;;;;;;7331231;19;114291;-69
2023/12/29 11:45:26;;;;;;;;;;;12.20;99.90;;;;;;7333308;19;109216;-69
2023/12/29 11:47:55;;;;;;;;;;;12.10;99.90;;;;;;7333967;19;109150;-69
2023/12/29 11:50:30;;;;;;;;;;;12.10;99.90;;;;;;7327975;19;110024;-69
2023/12/29 11:52:58;;;;;;;;;;;12.20;99.90;;;;;;7338328;19;108661;-68
2023/12/29 11:55:28;;;;;;;;;;;12.20;99.90;;;;;;7333840;19;108890;-69
2023/12/29 11:57:55;;;;;;;;;;;12.20;99.90;;;;;;7330476;19;108615;-69
2023/12/29 12:00:42;;;;;;;;;;;12.20;99.90;;;;;;7332436;19;113012;-69
2023/12/29 12:03:16;;;;;;;;;;;12.30;99.90;;;;;;7328770;19;108955;-69
2023/12/29 12:05:50;;;;;;;;;;;12.30;99.90;;;;;;7333673;19;110063;-69
2023/12/29 12:08:46;;;;;;;;;;;12.30;99.90;;;;;;7327004;19;109949;-69
2023/12/29 12:11:39;;;;;;;;;;;12.30;99.90;;;;;;7322759;19;108870;-74
2023/12/29 12:14:06;;;;;;;;;;;12.30;99.90;;;;;;7326583;19;109778;-72
2023/12/29 12:16:42;;;;;;;;;;;12.30;99.90;;;;;;7336166;19;109243;-73
2023/12/29 12:19:10;;;;;;;;;;;12.30;99.90;;;;;;7331314;19;109360;-74
2023/12/29 12:21:40;;;;;;;;;;;12.40;99.90;;;;;;7329799;19;110710;-69
2023/12/29 12:24:08;;;;;;;;;;;12.40;99.90;;;;;;7331079;19;108646;-74
2023/12/29 12:26:35;;;;;;;;;;;12.40;99.90;;;;;;7331124;19;108423;-71
2023/12/29 12:29:03;;;;;;;;;;;12.50;99.90;;;;;;7332689;19;109937;-70
2023/12/29 12:31:30;;;;;;;;;;;12.50;99.90;;;;;;7332512;19;108671;-71
2023/12/29 12:33:58;;;;;;;;;;;12.50;99.90;;;;;;7332932;19;109088;-69
2023/12/29 12:36:26;;;;;;;;;;;12.40;99.90;;;;;;7330829;19;109264;-68
2023/12/29 12:38:54;;;;;;;;;;;12.40;99.90;;;;;;7337317;19;109324;-69
2023/12/29 12:41:22;;;;;;;;;;;12.30;99.90;;;;;;7328927;19;110180;-68
2023/12/29 12:44:07;;;;;;;;;;;12.30;99.90;;;;;;7332000;19;110100;-70
2023/12/29 12:46:37;;;;;;;;;;;12.30;99.90;;;;;;7332177;19;108896;-68
2023/12/29 12:49:04;;;;;;;;;;;12.40;99.90;;;;;;7331959;19;110253;-68
2023/12/29 12:51:33;;;;;;;;;;;12.40;99.90;;;;;;7330671;19;109854;-69
2023/12/29 12:54:00;;;;;;;;;;;12.40;99.90;;;;;;7330481;19;110778;-69
2023/12/29 12:56:28;;;;;;;;;;;12.30;99.90;;;;;;7327436;19;110613;-69
2023/12/29 12:58:56;;;;;;;;;;;12.30;99.90;;;;;;7330888;19;114506;-68
2023/12/29 13:01:24;;;;;;;;;;;12.30;99.90;;;;;;7335129;19;109341;-69
2023/12/29 13:03:52;;;;;;;;;;;12.30;99.90;;;;;;7329815;19;108830;-69
2023/12/29 13:06:20;;;;;;;;;;;12.30;99.90;;;;;;7330854;19;109339;-69
2023/12/29 13:08:51;;;;;;;;;;;12.20;99.90;;;;;;7330578;19;109636;-69
2023/12/29 13:11:21;;;;;;;;;;;12.20;99.90;;;;;;7329942;19;108520;-68
2023/12/29 13:13:48;;;;;;;;;;;12.20;99.90;;;;;;7330813;19;108568;-69
2023/12/29 13:16:16;;;;;;;;;;;12.20;99.90;;;;;;7331198;19;114492;-69
2023/12/29 13:18:44;;;;;;;;;;;12.20;99.90;;;;;;7330271;19;108967;-68
2023/12/29 13:21:16;;;;;;;;;;;12.20;99.90;;;;;;7329941;19;109591;-68
2023/12/29 13:23:43;;;;;;;;;;;12.20;99.90;;;;;;7333697;19;109944;-68
2023/12/29 13:26:11;;;;;;;;;;;12.30;99.90;;;;;;7330665;19;108992;-68
2023/12/29 13:28:39;;;;;;;;;;;12.20;99.90;;;;;;7329153;19;109138;-68
2023/12/29 13:31:11;;;;;;;;;;;12.20;99.90;;;;;;7329490;19;109379;-68
2023/12/29 13:33:45;;;;;;;;;;;12.20;99.90;;;;;;7331863;19;109641;-68
2023/12/29 13:36:16;;;;;;;;;;;12.10;99.90;;;;;;7327094;19;110573;-68
2023/12/29 13:38:47;;;;;;;;;;;12.20;99.90;;;;;;7329376;19;108981;-68
2023/12/29 13:41:16;;;;;;;;;;;12.10;99.90;;;;;;7328916;19;108954;-68
2023/12/29 13:43:45;;;;;;;;;;;12.10;99.90;;;;;;7330119;19;109433;-68
2023/12/29 13:46:13;;;;;;;;;;;12.10;99.90;;;;;;7333209;19;108512;-68
2023/12/29 13:48:41;;;;;;;;;;;12.10;99.90;;;;;;7331138;19;109745;-68
2023/12/29 13:51:09;;;;;;;;;;;12.10;99.90;;;;;;7327089;19;110799;-68
2023/12/29 13:53:36;;;;;;;;;;;12.10;99.90;;;;;;7329854;19;109008;-68
2023/12/29 13:56:09;;;;;;;;;;;12.10;99.90;;;;;;7334645;19;109099;-68
2023/12/29 13:58:37;;;;;;;;;;;12.10;99.90;;;;;;7337118;19;108756;-68
2023/12/29 14:01:08;;;;;;;;;;;12.10;99.90;;;;;;7334548;19;108793;-68
2023/12/29 14:04:11;;;;;;;;;;;12.10;99.90;;;;;;7335322;19;109320;-70
2023/12/29 14:06:42;;;;;;;;;;;12.10;99.90;;;;;;7336298;19;109135;-68
2023/12/29 14:09:16;;;;;;;;;;;12.10;99.90;;;;;;7325324;19;110353;-69
2023/12/29 14:11:47;;;;;;;;;;;12.20;99.90;;;;;;7332037;19;110520;-68